Time;durP1;ratioP1;P1;durP2;ratioP2;P2;SDS_P1;SDS_P2;PMS_P1;PMS_P2;Temp;Humidity;BMP_temperature;BMP_pressure;BME280_temperature;BME280_humidity;BME280_pressure;Samples;Min_cycle;Max_cycle;Signal;HPM_P1;HPM_P2
2022/05/12 00:01:13;;;;;;;7.25;3.22;;;;;;;19.59;48.35;99407.16;12203344;19;20010;-82
2022/05/12 00:05:16;;;;;;;5.18;3.33;;;;;;;19.68;48.04;99414.81;12183489;19;20672;-82
2022/05/12 00:09:19;;;;;;;6.68;3.35;;;;;;;19.65;47.86;99433.03;12206079;19;20007;-82
2022/05/12 00:13:22;;;;;;;8.57;3.08;;;;;;;19.59;48.37;99432.31;12214437;19;20015;-82
2022/05/12 00:17:23;;;;;;;7.78;3.58;;;;;;;19.56;48.96;99446.09;12183739;19;20687;-81
2022/05/12 00:21:25;;;;;;;4.97;3.65;;;;;;;19.55;49.18;99444.47;12202792;19;20015;-81
2022/05/12 00:25:27;;;;;;;5.13;3.08;;;;;;;19.48;49.53;99444.91;12208174;19;20094;-81
2022/05/12 00:29:28;;;;;;;6.10;3.35;;;;;;;19.36;51.18;99453.00;12190791;19;20007;-81
2022/05/12 00:33:30;;;;;;;8.07;3.30;;;;;;;19.37;51.70;99465.88;12204128;19;20028;-81
2022/05/12 00:37:32;;;;;;;4.63;2.58;;;;;;;19.37;51.49;99457.47;12203321;19;20094;-82
2022/05/12 00:41:34;;;;;;;6.00;3.10;;;;;;;19.31;51.19;99458.75;12193149;19;20015;-82
2022/05/12 00:45:37;;;;;;;4.57;2.85;;;;;;;19.21;51.97;99465.38;12206679;19;20779;-82
2022/05/12 00:49:40;;;;;;;5.55;2.92;;;;;;;19.15;52.06;99468.63;12200378;19;20018;-82
2022/05/12 00:53:45;;;;;;;7.20;3.13;;;;;;;19.09;52.93;99463.16;12182596;19;20412;-82
2022/05/12 00:57:53;;;;;;;6.40;3.00;;;;;;;19.06;53.02;99471.34;12206290;19;20638;-83
2022/05/12 01:01:57;;;;;;;4.50;2.63;;;;;;;19.02;53.37;99489.88;12206707;19;20014;-82
2022/05/12 01:06:02;;;;;;;4.55;2.80;;;;;;;18.96;53.68;99491.94;12182622;19;20011;-82
2022/05/12 01:10:05;;;;;;;8.50;3.22;;;;;;;18.86;53.92;99497.78;12197081;19;20039;-82
2022/05/12 01:14:08;;;;;;;4.75;2.70;;;;;;;18.79;55.05;99500.97;12179066;19;20013;-81
2022/05/12 01:18:15;;;;;;;4.95;3.00;;;;;;;18.73;55.56;99501.34;12204258;19;20664;-82
2022/05/12 01:22:34;;;;;;;6.85;3.78;;;;;;;18.73;55.92;99507.78;12200967;19;20475;-82
2022/05/12 01:26:37;;;;;;;7.32;3.15;;;;;;;18.70;56.17;99519.53;12185917;19;20062;-81
2022/05/12 01:30:38;;;;;;;6.65;2.88;;;;;;;18.62;56.69;99515.53;12191301;19;20135;-81
2022/05/12 01:34:40;;;;;;;7.38;2.97;;;;;;;18.58;56.73;99522.03;12196557;19;20094;-81
2022/05/12 01:38:42;;;;;;;6.53;3.55;;;;;;;18.54;56.93;99524.63;12175090;19;20111;-82
2022/05/12 01:42:44;;;;;;;6.82;2.90;;;;;;;18.47;57.84;99532.56;12205187;19;20460;-81
2022/05/12 01:46:48;;;;;;;5.05;3.03;;;;;;;18.44;57.71;99544.34;12195458;19;20002;-81
2022/05/12 01:50:50;;;;;;;5.55;3.45;;;;;;;18.42;57.78;99543.84;12180705;19;20423;-82
2022/05/12 01:54:52;;;;;;;8.55;2.60;;;;;;;18.37;58.26;99560.66;12194369;19;20451;-82
2022/05/12 01:58:54;;;;;;;6.13;2.88;;;;;;;18.34;58.48;99561.28;12207897;19;20010;-82
2022/05/12 02:03:00;;;;;;;5.53;2.50;;;;;;;18.29;58.81;99569.72;12172540;19;20516;-82
2022/05/12 02:07:03;;;;;;;8.27;3.10;;;;;;;18.26;58.78;99578.72;12207743;19;20010;-82
2022/05/12 02:11:04;;;;;;;5.55;2.90;;;;;;;18.16;59.87;99583.34;12185292;19;20014;-82
2022/05/12 02:15:07;;;;;;;5.05;2.75;;;;;;;18.13;59.26;99588.72;12196060;19;20011;-82
2022/05/12 02:19:11;;;;;;;4.28;2.40;;;;;;;18.06;59.86;99599.44;12194345;19;20006;-82
2022/05/12 02:23:13;;;;;;;5.57;2.90;;;;;;;17.96;60.25;99601.25;12178544;19;20023;-82
2022/05/12 02:27:14;;;;;;;9.05;2.88;;;;;;;17.89;60.76;99616.72;12201491;19;20034;-81
2022/05/12 02:31:16;;;;;;;5.10;2.72;;;;;;;17.82;61.39;99621.81;12206381;19;20011;-82
2022/05/12 02:45:35;;;;;;;5.03;2.63;;;;;;;17.65;60.89;99637.09;12191923;19;20017;-81
2022/05/12 02:49:37;;;;;;;5.80;2.80;;;;;;;17.57;62.10;99636.94;12202107;19;20007;-82
2022/05/12 02:53:40;;;;;;;3.67;2.17;;;;;;;17.50;61.48;99629.78;12182679;19;20484;-81
2022/05/12 02:57:42;;;;;;;;;;;;;;;17.43;62.76;99640.50;12209058;19;20058;-81
2022/05/12 03:01:44;;;;;;;5.50;2.42;;;;;;;17.38;62.31;99639.72;12219168;19;19914;-81
2022/05/12 03:05:45;;;;;;;4.33;2.47;;;;;;;17.30;62.41;99641.22;12188374;19;20006;-82
2022/05/12 03:09:47;;;;;;;3.45;2.30;;;;;;;17.23;62.84;99655.50;12203683;19;20271;-81
2022/05/12 03:13:49;;;;;;;4.95;2.15;;;;;;;17.16;63.19;99660.59;12212197;19;20030;-81
2022/05/12 03:17:51;;;;;;;5.10;2.95;;;;;;;17.10;63.63;99661.78;12188738;19;20006;-82
2022/05/12 03:21:52;;;;;;;9.13;2.80;;;;;;;17.14;63.47;99659.25;12210596;19;20034;-82
2022/05/12 03:25:54;;;;;;;5.93;2.85;;;;;;;17.23;63.50;99674.16;12217197;19;20029;-82
2022/05/12 03:29:56;;;;;;;3.88;2.25;;;;;;;17.34;62.98;99674.84;12186120;19;20074;-82
2022/05/12 03:34:00;;;;;;;4.20;2.20;;;;;;;17.43;63.25;99687.84;12208876;19;20033;-82
2022/05/12 03:38:02;;;;;;;5.13;2.22;;;;;;;17.50;63.18;99681.91;12186888;19;20019;-82
2022/05/12 03:42:06;;;;;;;4.00;2.20;;;;;;;17.59;63.17;99693.22;12212197;19;20093;-82
2022/05/12 03:46:08;;;;;;;6.55;2.90;;;;;;;17.66;63.06;99690.88;12207721;19;20015;-82
2022/05/12 03:50:16;;;;;;;6.95;2.05;;;;;;;17.69;63.62;99704.19;12186394;19;20357;-82
2022/05/12 03:54:20;;;;;;;4.38;2.40;;;;;;;17.74;63.37;99715.28;12197895;19;20006;-81
2022/05/12 03:58:22;;;;;;;5.80;1.83;;;;;;;17.82;62.62;99719.38;12205893;19;20555;-81
2022/05/12 04:02:24;;;;;;;6.13;2.20;;;;;;;17.85;62.72;99719.63;12190914;19;20397;-82
2022/05/12 04:06:26;;;;;;;7.13;2.17;;;;;;;17.92;62.56;99730.41;12201098;19;20081;-82
2022/05/12 04:10:29;;;;;;;6.00;1.88;;;;;;;17.96;62.30;99731.44;12202359;19;20006;-82
2022/05/12 04:14:31;;;;;;;3.90;2.03;;;;;;;17.94;62.45;99742.91;12182422;19;20015;-82
2022/05/12 04:18:32;;;;;;;8.23;2.50;;;;;;;17.92;62.58;99741.53;12204841;19;20007;-82
2022/05/12 04:22:34;;;;;;;4.10;2.10;;;;;;;17.89;62.47;99758.88;12207899;19;20097;-83
2022/05/12 04:26:38;;;;;;;6.63;2.85;;;;;;;17.79;63.05;99757.06;12178626;19;20006;-82
2022/05/12 04:30:40;;;;;;;5.90;2.50;;;;;;;17.74;63.13;99769.06;12210649;19;20010;-82
2022/05/12 04:39:03;;;;;;;7.63;2.50;;;;;;;17.62;63.78;99779.81;12193053;19;20017;-83
2022/05/12 04:43:05;;;;;;;;;;;;;;;17.62;64.32;99798.50;12205535;19;20534;-82
2022/05/12 04:47:07;;;;;;;5.65;2.53;;;;;;;17.67;64.22;99796.47;12175341;19;19978;-82
2022/05/12 04:51:09;;;;;;;7.13;2.45;;;;;;;17.70;64.02;99793.09;12211702;19;20101;-82
2022/05/12 04:55:11;;;;;;;7.97;3.10;;;;;;;17.74;64.35;99794.16;12211032;19;20029;-81
2022/05/12 04:59:13;;;;;;;6.60;2.65;;;;;;;17.81;64.27;99796.59;12180274;19;20031;-82
2022/05/12 05:03:15;;;;;;;9.05;3.00;;;;;;;17.80;64.66;99800.53;12205770;19;20011;-83
2022/05/12 05:07:22;;;;;;;7.20;3.10;;;;;;;17.85;64.42;99800.47;12213257;19;20014;-81
2022/05/12 05:11:24;;;;;;;4.53;2.35;;;;;;;17.90;64.69;99814.31;12191941;19;20054;-82
2022/05/12 05:15:26;;;;;;;9.60;2.40;;;;;;;17.93;64.11;99818.47;12212680;19;20014;-82
2022/05/12 05:19:31;;;;;;;4.53;2.58;;;;;;;18.01;63.88;99826.16;12209004;19;20010;-84
2022/05/12 05:23:32;;;;;;;5.47;2.95;;;;;;;18.11;63.82;99833.56;12189184;19;20006;-81
2022/05/12 05:27:35;;;;;;;10.23;2.85;;;;;;;18.16;63.97;99844.66;12206883;19;20033;-81
2022/05/12 05:31:38;;;;;;;;;;;;;;;18.19;63.89;99858.81;12208156;19;20018;-83
2022/05/12 05:35:40;;;;;;;10.95;3.28;;;;;;;18.25;63.49;99861.56;12203335;19;19929;-82
2022/05/12 05:39:41;;;;;;;5.35;2.30;;;;;;;18.33;63.62;99877.63;12234478;19;20014;-82
2022/05/12 05:43:44;;;;;;;9.32;3.13;;;;;;;18.45;63.40;99880.81;12233402;19;20022;-82
2022/05/12 05:47:51;;;;;;;6.15;2.30;;;;;;;18.56;63.05;99882.31;12210429;19;20014;-82
2022/05/12 05:56:15;;;;;;;4.60;2.25;;;;;;;18.75;63.08;99889.91;12219854;19;20049;-83
2022/05/12 06:00:17;;;;;;;6.70;2.55;;;;;;;18.86;63.04;99897.81;12245036;19;20006;-83
2022/05/12 06:04:20;;;;;;;4.55;2.38;;;;;;;18.93;62.68;99903.00;12243379;19;20010;-83
2022/05/12 06:08:22;;;;;;;7.10;2.25;;;;;;;18.98;62.53;99902.13;12220011;19;20017;-83
2022/05/12 06:12:30;;;;;;;5.97;2.00;;;;;;;19.05;62.73;99922.09;12243527;19;20007;-83
2022/05/12 06:16:33;;;;;;;4.65;1.95;;;;;;;19.21;62.51;99925.47;12229318;19;20003;-84
2022/05/12 06:20:36;;;;;;;5.53;2.25;;;;;;;19.25;62.31;99923.72;12195789;19;20003;-84
2022/05/12 06:24:38;;;;;;;7.82;2.30;;;;;;;19.29;62.70;99931.19;12233156;19;20006;-83
2022/05/12 06:28:45;;;;;;;7.07;1.73;;;;;;;19.33;61.99;99942.56;12228559;19;20078;-84
2022/05/12 06:32:48;;;;;;;10.32;2.58;;;;;;;19.31;61.92;99942.88;12210150;19;20026;-83
2022/05/12 06:36:51;;;;;;;3.88;2.05;;;;;;;19.20;61.80;99952.56;12228372;19;20377;-84
2022/05/12 06:40:53;;;;;;;3.97;1.38;;;;;;;19.04;61.53;99954.78;12228797;19;20066;-84
2022/05/12 06:44:55;;;;;;;3.63;1.40;;;;;;;18.92;61.50;99956.34;12205668;19;20011;-83
2022/05/12 06:48:57;;;;;;;8.87;1.77;;;;;;;18.92;61.62;99959.13;12228756;19;20029;-83
2022/05/12 06:53:02;;;;;;;5.27;1.67;;;;;;;18.88;60.33;99967.28;12222970;19;20490;-85
2022/05/12 06:57:05;;;;;;;3.13;1.40;;;;;;;18.77;59.58;99976.94;12195596;19;20010;-85
2022/05/12 07:01:09;;;;;;;;;;;;;;;18.66;59.85;99985.44;12228249;19;20356;-85
2022/05/12 07:05:20;;;;;;;5.47;1.83;;;;;;;18.58;59.98;99974.94;12205374;19;19938;-83
2022/05/12 07:09:24;;;;;;;5.05;1.33;;;;;;;18.55;60.33;99977.50;12229449;19;20027;-86
2022/05/12 07:13:26;;;;;;;3.28;1.50;;;;;;;18.54;60.25;99982.25;12225339;19;20086;-84
2022/05/12 07:17:38;;;;;;;3.78;1.23;;;;;;;18.59;60.97;99984.97;12191023;19;20014;-84
2022/05/12 07:30:21;;;;;;;3.80;1.70;;;;;;;19.68;59.99;99987.84;12226005;19;20459;-85
2022/05/12 07:34:23;;;;;;;2.88;1.50;;;;;;;19.89;59.03;99989.13;12218618;19;20003;-84
2022/05/12 07:38:27;;;;;;;5.70;1.60;;;;;;;20.13;58.81;99988.16;12197264;19;20519;-85
2022/05/12 07:42:29;;;;;;;5.85;1.60;;;;;;;20.32;57.75;100002.06;12207189;19;20452;-83
2022/05/12 07:46:36;;;;;;;3.00;2.08;;;;;;;20.33;56.92;99998.13;12216770;19;20015;-83
2022/05/12 07:50:39;;;;;;;;;;;;;;;20.15;56.27;100005.47;12194698;19;21845;-84
2022/05/12 07:54:41;;;;;;;4.90;1.30;;;;;;;20.28;56.06;99996.25;12206530;19;19980;-82
2022/05/12 07:58:43;;;;;;;3.58;1.25;;;;;;;20.94;55.13;100013.66;12205231;19;20020;-82
2022/05/12 08:02:46;;;;;;;4.72;1.60;;;;;;;21.25;53.83;100008.19;12183591;19;20479;-83
2022/05/12 08:06:49;;;;;;;5.50;1.30;;;;;;;21.62;52.17;100020.19;12207084;19;20115;-82
2022/05/12 08:10:52;;;;;;;4.53;1.73;;;;;;;21.66;52.46;100014.81;12207276;19;20006;-83
2022/05/12 08:14:54;;;;;;;9.50;2.00;;;;;;;22.04;51.36;100018.00;12186144;19;20018;-82
2022/05/12 08:18:55;;;;;;;7.87;1.70;;;;;;;22.14;51.73;100014.94;12218418;19;20007;-84
2022/05/12 08:22:57;;;;;;;7.90;1.33;;;;;;;22.33;52.07;100011.91;12210187;19;20343;-84
2022/05/12 08:26:58;;;;;;;9.50;1.50;;;;;;;22.35;51.32;100020.00;12182649;19;20027;-83
2022/05/12 08:31:00;;;;;;;3.55;1.70;;;;;;;22.10;51.47;100022.34;12213851;19;20014;-83
2022/05/12 08:35:09;;;;;;;5.63;1.48;;;;;;;22.22;51.55;100028.22;12192322;19;20017;-83
2022/05/12 08:39:10;;;;;;;3.78;1.48;;;;;;;22.40;50.45;100025.47;12212596;19;20029;-83
2022/05/12 08:43:24;;;;;;;4.33;1.40;;;;;;;22.39;50.78;100029.44;12209245;19;20031;-83
2022/05/12 08:47:32;;;;;;;4.18;1.38;;;;;;;22.26;49.25;100031.19;12192348;19;20014;-83
2022/05/12 08:51:35;;;;;;;5.90;1.45;;;;;;;22.02;50.38;100045.56;12207963;19;20346;-85
2022/05/12 08:56:04;;;;;;;3.95;1.80;;;;;;;21.90;50.35;100042.53;12204472;19;20016;-84
2022/05/12 09:00:15;;;;;;;5.90;1.58;;;;;;;21.69;51.06;100039.41;12190175;19;20019;-83
2022/05/12 09:04:48;;;;;;;3.30;1.40;;;;;;;21.78;50.60;100049.53;12205840;19;20038;-83
2022/05/12 09:09:25;;;;;;;3.13;1.85;;;;;;;21.85;50.50;100037.84;12184882;19;20014;-83
2022/05/12 09:13:49;;;;;;;3.20;1.50;;;;;;;21.85;51.17;100033.06;12197006;19;20372;-83
2022/05/12 09:17:56;;;;;;;8.38;1.40;;;;;;;22.30;49.88;100033.03;12179044;19;20019;-83
2022/05/12 09:21:58;;;;;;;5.22;1.63;;;;;;;22.19;49.14;100042.03;12210054;19;20035;-83
2022/05/12 09:26:00;;;;;;;3.47;1.30;;;;;;;22.05;49.67;100033.69;12193039;19;20017;-83
2022/05/12 09:30:04;;;;;;;6.47;2.37;;;;;;;22.15;49.44;100039.03;12203274;19;20006;-84
2022/05/12 09:34:21;;;;;;;4.55;1.48;;;;;;;22.28;49.63;100031.72;12199276;19;20011;-83
2022/05/12 09:38:29;;;;;;;4.30;1.10;;;;;;;22.92;47.46;100028.47;12187704;19;20031;-83
2022/05/12 09:42:31;;;;;;;4.97;1.27;;;;;;;23.30;46.19;100033.50;12199514;19;20045;-83
2022/05/12 09:46:33;;;;;;;7.32;1.25;;;;;;;23.50;45.67;100035.69;12206979;19;20007;-84
2022/05/12 09:50:35;;;;;;;10.18;1.33;;;;;;;23.87;44.12;100024.91;12181626;19;20111;-83
2022/05/12 09:54:40;;;;;;;5.13;1.38;;;;;;;24.09;42.88;100024.69;12197862;19;20006;-83
2022/05/12 09:58:50;;;;;;;4.47;1.20;;;;;;;24.56;41.21;100013.44;12205957;19;20010;-81
2022/05/12 10:11:53;;;;;;;5.15;1.30;;;;;;;24.16;40.62;99998.00;12177658;19;20011;-84
2022/05/12 10:15:56;;;;;;;4.47;1.05;;;;;;;24.89;39.67;99993.00;12198849;19;20083;-82
2022/05/12 10:20:19;;;;;;;22.17;2.28;;;;;;;24.66;38.78;100006.59;12197115;19;20011;-81
2022/05/12 10:24:35;;;;;;;5.23;1.87;;;;;;;24.68;39.20;100004.25;12199798;19;20082;-84
2022/05/12 10:29:08;;;;;;;4.38;1.35;;;;;;;24.65;38.89;100006.94;12205404;19;20026;-83
2022/05/12 10:33:36;;;;;;;4.60;1.38;;;;;;;25.08;37.90;100009.50;12180509;19;20472;-85
2022/05/12 10:37:49;;;;;;;3.10;1.35;;;;;;;25.26;37.96;99990.47;12194926;19;20002;-83
2022/05/12 10:42:16;;;;;;;7.35;1.55;;;;;;;25.18;37.02;99988.53;12180979;19;20017;-84
2022/05/12 10:46:30;;;;;;;4.05;1.20;;;;;;;24.67;38.54;99987.69;12200052;19;20010;-82
2022/05/12 10:50:51;;;;;;;4.18;1.45;;;;;;;24.61;37.87;99992.69;12181654;19;20483;-83
2022/05/12 10:55:21;;;;;;;2.95;0.95;;;;;;;25.00;37.11;99985.81;12202067;19;20015;-82
2022/05/12 10:59:37;;;;;;;3.60;1.67;;;;;;;25.19;36.49;99987.38;12166644;19;20734;-83
2022/05/12 11:04:01;;;;;;;8.05;1.23;;;;;;;24.78;37.65;99983.34;12197636;19;20023;-83
2022/05/12 11:08:29;;;;;;;3.38;1.10;;;;;;;25.29;37.25;99975.69;12182570;19;20031;-84
2022/05/12 11:12:50;;;;;;;8.98;1.48;;;;;;;25.78;36.07;99986.34;12218757;19;20019;-85
2022/05/12 11:17:16;;;;;;;1.58;0.82;;;;;;;25.97;35.12;99968.88;12210688;19;20041;-85
2022/05/12 11:21:19;;;;;;;;;;;;;;;25.99;35.35;99975.84;12191924;19;20011;-86
2022/05/12 11:25:33;;;;;;;2.65;1.05;;;;;;;26.40;34.48;99970.38;12211215;19;19970;-84
2022/05/12 11:29:51;;;;;;;3.08;1.10;;;;;;;26.23;35.16;99972.22;12192178;19;20133;-84
2022/05/12 11:34:05;;;;;;;3.70;1.30;;;;;;;26.16;34.93;99976.81;12207564;19;20018;-84
2022/05/12 11:38:11;;;;;;;4.50;1.30;;;;;;;26.89;34.68;99974.03;12193172;19;20025;-83
2022/05/12 11:42:14;;;;;;;6.22;1.15;;;;;;;26.63;33.83;99973.59;12215571;19;20375;-84
2022/05/12 11:46:47;;;;;;;2.15;1.10;;;;;;;25.81;34.33;99961.06;12207999;19;20010;-85
2022/05/12 11:51:27;;;;;;;5.00;1.20;;;;;;;25.53;35.66;99963.69;12189444;19;20014;-84
2022/05/12 11:55:52;;;;;;;4.07;1.20;;;;;;;24.64;36.29;99972.28;12204105;19;20015;-84
2022/05/12 11:59:55;;;;;;;2.70;1.15;;;;;;;25.77;36.28;99956.47;12185778;19;20018;-85
2022/05/12 12:04:03;;;;;;;6.22;1.40;;;;;;;26.66;34.39;99962.41;12200950;19;20067;-86
2022/05/12 12:08:09;;;;;;;4.10;1.42;;;;;;;26.31;35.30;99953.53;12182292;19;20010;-86
2022/05/12 12:12:41;;;;;;;4.70;1.30;;;;;;;26.42;34.94;99951.06;12209589;19;20007;-84
2022/05/12 12:17:02;;;;;;;7.80;1.65;;;;;;;27.86;32.54;99940.13;12210942;19;20007;-84
2022/05/12 12:21:48;;;;;;;5.85;1.52;;;;;;;28.08;31.26;99938.66;12182616;19;20033;-85
2022/05/12 12:26:24;;;;;;;5.15;1.40;;;;;;;27.79;32.30;99932.25;12201788;19;20007;-87
2022/05/12 12:30:38;;;;;;;6.97;1.10;;;;;;;28.72;30.22;99931.78;12186663;19;20502;-82
2022/05/12 12:34:53;;;;;;;3.13;1.08;;;;;;;27.88;31.26;99943.41;12211604;19;20003;-84
2022/05/12 12:39:06;;;;;;;4.60;1.08;;;;;;;28.30;31.18;99931.53;12188636;19;20379;-83
2022/05/12 12:43:26;;;;;;;3.53;1.30;;;;;;;28.96;30.60;99930.69;12213612;19;20425;-84
2022/05/12 12:47:55;;;;;;;3.25;1.23;;;;;;;30.25;28.65;99933.31;12187923;19;20031;-84
2022/05/12 12:52:09;;;;;;;3.10;1.20;;;;;;;31.56;27.17;99927.09;12216728;19;20007;-82
2022/05/12 12:56:31;;;;;;;5.38;1.35;;;;;;;31.61;26.78;99929.59;12180627;19;20018;-84
2022/05/12 13:00:36;;;;;;;5.70;1.30;;;;;;;30.92;26.97;99935.63;12213896;19;20028;-83
2022/05/12 13:04:38;;;;;;;2.55;1.20;;;;;;;31.67;26.64;99918.69;12199637;19;20094;-84
2022/05/12 13:08:41;;;;;;;7.88;1.40;;;;;;;32.80;25.05;99917.25;12188168;19;20007;-84
2022/05/12 13:12:57;;;;;;;5.10;1.10;;;;;;;33.08;24.02;99914.59;12207575;19;20010;-83
2022/05/12 13:16:59;;;;;;;3.28;1.10;;;;;;;32.25;25.76;99903.81;12210990;19;20014;-84
2022/05/12 13:21:03;;;;;;;4.03;1.48;;;;;;;32.30;25.18;99908.31;12210939;19;20098;-84
2022/05/12 13:25:05;;;;;;;3.53;1.67;;;;;;;32.01;25.58;99899.53;12209180;19;20070;-85
2022/05/12 13:29:09;;;;;;;5.28;1.55;;;;;;;32.10;25.68;99896.34;12184989;19;20364;-85
2022/05/12 13:33:18;;;;;;;6.50;1.85;;;;;;;31.41;25.86;99903.34;12208489;19;20010;-84
2022/05/12 13:37:24;;;;;;;2.72;1.08;;;;;;;32.11;25.74;99886.56;12208686;19;20099;-83
2022/05/12 13:41:31;;;;;;;3.85;1.23;;;;;;;32.98;24.44;99895.38;12185207;19;20006;-83
2022/05/12 13:45:34;;;;;;;4.10;1.27;;;;;;;33.12;23.98;99886.88;12207267;19;20023;-84
2022/05/12 13:49:41;;;;;;;3.72;1.30;;;;;;;34.16;23.24;99875.72;12200390;19;20002;-85
2022/05/12 13:53:50;;;;;;;4.82;1.00;;;;;;;32.79;23.92;99875.69;12188571;19;20081;-87
2022/05/12 13:58:11;;;;;;;4.63;1.30;;;;;;;32.98;23.62;99875.38;12201749;19;20022;-82
2022/05/12 14:02:26;;;;;;;7.70;1.42;;;;;;;31.85;24.61;99867.56;12183471;19;20011;-82
2022/05/12 14:06:29;;;;;;;2.50;1.20;;;;;;;32.03;24.60;99860.03;12203814;19;20130;-81
2022/05/12 14:10:36;;;;;;;1.98;0.90;;;;;;;32.62;23.10;99851.53;12211913;19;20015;-83
2022/05/12 14:19:16;;;;;;;3.65;1.27;;;;;;;34.73;21.56;99857.69;12208451;19;20019;-83
2022/05/12 14:23:18;;;;;;;4.13;1.20;;;;;;;34.18;21.11;99849.56;12178776;19;20098;-85
2022/05/12 14:27:20;;;;;;;4.93;1.45;;;;;;;33.22;22.55;99838.78;12200166;19;20053;-83
2022/05/12 14:31:24;;;;;;;3.42;1.10;;;;;;;31.79;23.71;99832.94;12208173;19;20010;-83
2022/05/12 14:35:28;;;;;;;6.53;2.08;;;;;;;31.26;24.39;99850.25;12180808;19;20114;-82
2022/05/12 14:39:33;;;;;;;4.05;1.17;;;;;;;30.86;24.50;99844.09;12204497;19;20074;-83
2022/05/12 14:43:35;;;;;;;3.45;1.25;;;;;;;31.57;24.32;99842.50;12216137;19;20033;-84
2022/05/12 14:47:37;;;;;;;;;;;;;;;31.43;24.35;99841.13;12199931;19;20102;-83
2022/05/12 14:51:38;;;;;;;;;;;;;;;30.59;25.36;99839.63;12211416;19;19974;-83
2022/05/12 14:55:41;;;;;;;2.97;1.10;;;;;;;29.74;25.69;99840.69;12211590;19;19915;-82
2022/05/12 14:59:43;;;;;;;2.75;0.82;;;;;;;28.96;26.17;99842.78;12195851;19;20007;-84
2022/05/12 15:03:46;;;;;;;2.08;1.05;;;;;;;28.77;26.92;99842.78;12213347;19;20444;-82
2022/05/12 15:07:48;;;;;;;4.72;1.30;;;;;;;28.35;27.60;99843.44;12217272;19;20011;-85
2022/05/12 15:11:50;;;;;;;6.22;1.10;;;;;;;27.99;27.69;99824.72;12192423;19;20007;-83
2022/05/12 15:15:54;;;;;;;;;;;;;;;27.39;28.70;99836.91;12214095;19;20034;-82
2022/05/12 15:19:55;;;;;;;4.18;1.30;;;;;;;27.20;28.54;99831.97;12220582;19;19926;-83
2022/05/12 15:23:57;;;;;;;2.05;1.10;;;;;;;26.91;29.41;99823.81;12198059;19;20015;-84
2022/05/12 15:27:59;;;;;;;4.43;1.02;;;;;;;26.83;29.31;99822.78;12212996;19;20010;-84
2022/05/12 15:32:01;;;;;;;3.55;0.98;;;;;;;26.93;29.86;99827.94;12195085;19;20013;-83
2022/05/12 15:36:21;;;;;;;3.47;1.48;;;;;;;27.44;28.98;99828.16;12214250;19;20014;-82
2022/05/12 15:40:24;;;;;;;4.75;1.45;;;;;;;27.54;28.92;99825.97;12219009;19;20023;-83
2022/05/12 15:44:25;;;;;;;2.33;0.90;;;;;;;26.94;29.46;99826.72;12189539;19;20015;-83
2022/05/12 15:48:29;;;;;;;5.68;1.02;;;;;;;26.37;29.38;99828.63;12213616;19;20095;-84
2022/05/12 15:52:31;;;;;;;4.40;1.20;;;;;;;25.77;30.04;99826.66;12212253;19;20047;-83
2022/05/12 15:56:32;;;;;;;5.10;1.00;;;;;;;25.48;31.07;99827.66;12187337;19;20110;-83
2022/05/12 16:00:38;;;;;;;5.10;0.93;;;;;;;25.62;30.32;99830.97;12206410;19;20119;-83
2022/05/12 16:04:40;;;;;;;2.33;0.90;;;;;;;25.52;30.90;99834.25;12200167;19;20014;-82
2022/05/12 16:08:42;;;;;;;2.72;1.13;;;;;;;25.24;31.30;99826.41;12187953;19;20010;-82
2022/05/12 16:13:21;;;;;;;2.30;1.10;;;;;;;25.06;31.67;99827.75;12211727;19;20074;-82
2022/05/12 16:17:12;;;;;;;3.10;1.10;;;;;;;24.92;31.69;99826.03;12180693;19;20601;-82
2022/05/12 16:21:13;;;;;;;22.58;2.67;;;;;;;24.67;32.04;99810.19;12210075;19;20014;-82
2022/05/12 16:25:21;;;;;;;4.50;1.43;;;;;;;24.55;32.57;99803.31;12210519;19;20011;-84
2022/05/12 16:29:32;;;;;;;4.88;1.00;;;;;;;24.27;32.44;99802.16;12184978;19;20242;-82
2022/05/12 16:33:34;;;;;;;8.02;1.20;;;;;;;23.97;33.55;99807.00;12211889;19;20070;-83
2022/05/12 16:37:36;;;;;;;2.23;0.90;;;;;;;23.87;33.75;99805.41;12214199;19;20849;-83
2022/05/12 16:41:39;;;;;;;2.90;1.02;;;;;;;24.04;33.21;99799.69;12192889;19;20415;-83
2022/05/12 16:45:43;;;;;;;2.15;1.00;;;;;;;23.99;33.68;99801.88;12194662;19;20011;-83
2022/05/12 16:49:44;;;;;;;4.95;1.15;;;;;;;23.84;34.00;99806.91;12209991;19;20040;-83
2022/05/12 16:53:48;;;;;;;4.40;1.27;;;;;;;23.76;34.71;99802.13;12174951;19;20420;-83
2022/05/12 16:57:50;;;;;;;5.87;1.37;;;;;;;23.69;34.05;99807.44;12208887;19;20026;-83
2022/05/12 17:02:12;;;;;;;5.00;2.03;;;;;;;23.64;34.04;99802.81;12194359;19;20030;-84
2022/05/12 17:06:14;;;;;;;6.00;2.25;;;;;;;23.47;34.61;99805.72;12201255;19;20010;-82
2022/05/12 17:10:17;;;;;;;6.27;2.47;;;;;;;23.27;34.87;99798.84;12205907;19;20543;-83
2022/05/12 17:14:21;;;;;;;4.85;1.85;;;;;;;23.09;34.70;99800.88;12182071;19;20004;-83
2022/05/12 17:18:22;;;;;;;;;;;;;;;23.08;35.43;99806.81;12206108;19;20738;-83
2022/05/12 17:22:25;;;;;;;3.45;1.20;;;;;;;23.20;35.38;99809.75;12204274;19;19997;-84
2022/05/12 17:26:27;;;;;;;;;;;;;;;23.25;35.07;99812.41;12187238;19;20376;-84
2022/05/12 17:30:29;;;;;;;4.15;1.02;;;;;;;23.35;35.06;99811.19;12213062;19;19911;-83
2022/05/12 17:34:38;;;;;;;6.03;1.63;;;;;;;23.49;34.85;99805.38;12197507;19;20010;-84
2022/05/12 17:38:42;;;;;;;3.70;1.17;;;;;;;23.56;35.20;99803.72;12184060;19;20011;-84
2022/05/12 17:42:46;;;;;;;2.30;0.98;;;;;;;23.64;34.95;99811.25;12204405;19;20452;-83
2022/05/12 17:46:47;;;;;;;2.42;0.90;;;;;;;23.70;34.65;99797.03;12211286;19;20006;-84
2022/05/12 17:50:52;;;;;;;6.20;1.67;;;;;;;23.63;35.24;99815.25;12181481;19;20022;-85
2022/05/12 17:54:53;;;;;;;6.07;1.23;;;;;;;23.61;35.53;99813.94;12199034;19;20074;-83
2022/05/12 17:59:09;;;;;;;5.18;0.95;;;;;;;23.50;35.63;99809.84;12186819;19;20015;-86
2022/05/12 18:03:13;;;;;;;3.13;0.95;;;;;;;23.36;36.50;99818.50;12192717;19;20019;-82
2022/05/12 18:07:14;;;;;;;3.33;1.10;;;;;;;23.09;36.54;99814.09;12204532;19;20437;-85
2022/05/12 18:11:20;;;;;;;3.67;1.10;;;;;;;22.98;36.43;99814.44;12181905;19;20054;-83
2022/05/12 18:15:24;;;;;;;2.95;1.20;;;;;;;22.85;36.60;99803.38;12205363;19;20027;-83
2022/05/12 18:19:25;;;;;;;5.50;1.47;;;;;;;22.62;37.19;99800.72;12202904;19;20010;-84
2022/05/12 18:23:27;;;;;;;3.60;1.57;;;;;;;22.43;37.59;99817.09;12178660;19;20057;-85
2022/05/12 18:27:29;;;;;;;2.67;0.90;;;;;;;22.32;37.43;99812.94;12196772;19;19999;-83
2022/05/12 18:31:32;;;;;;;3.10;1.00;;;;;;;22.21;37.91;99824.47;12207263;19;20267;-81
2022/05/12 18:35:34;;;;;;;4.85;0.82;;;;;;;22.11;38.21;99821.94;12179642;19;20488;-83
2022/05/12 18:39:38;;;;;;;5.05;1.33;;;;;;;21.97;38.54;99824.88;12207816;19;20011;-82
2022/05/12 18:43:40;;;;;;;3.20;0.93;;;;;;;21.83;38.41;99824.16;12202066;19;20003;-82
2022/05/12 18:47:43;;;;;;;4.53;1.03;;;;;;;21.64;38.88;99827.22;12185610;19;20002;-83
2022/05/12 18:51:44;;;;;;;3.72;1.27;;;;;;;21.45;39.41;99835.06;12200122;19;20013;-84
2022/05/12 18:55:47;;;;;;;5.57;1.30;;;;;;;21.28;39.80;99836.59;12199596;19;20017;-83
2022/05/12 18:59:52;;;;;;;3.78;1.25;;;;;;;;;;12179020;19;20039;-83
2022/05/12 19:03:54;;;;;;;7.22;1.63;;;;;;;20.97;40.37;99839.38;12200376;19;20055;-83
2022/05/12 19:07:56;;;;;;;4.47;1.10;;;;;;;20.80;40.70;99844.81;12188551;19;20053;-83
2022/05/12 19:12:25;;;;;;;2.50;1.63;;;;;;;20.62;41.45;99852.25;12177394;19;20017;-82
2022/05/12 19:16:27;;;;;;;2.72;1.30;;;;;;;20.43;41.77;99853.19;12197107;19;20018;-82
2022/05/12 19:20:47;;;;;;;4.47;1.23;;;;;;;20.29;42.53;99862.78;12179122;19;20352;-82
2022/05/12 19:24:49;;;;;;;15.02;1.88;;;;;;;20.14;42.43;99866.72;12196840;19;20010;-82
2022/05/12 19:28:51;;;;;;;3.70;1.52;;;;;;;20.02;42.92;99873.69;12200790;19;20010;-83
2022/05/12 19:32:53;;;;;;;5.70;1.27;;;;;;;19.94;42.83;99880.00;12192483;19;20003;-83
2022/05/12 19:36:55;;;;;;;4.53;1.50;;;;;;;19.87;42.91;99875.94;12206570;19;20011;-83
2022/05/12 19:40:57;;;;;;;3.65;1.25;;;;;;;19.82;42.94;99876.88;12208986;19;20010;-83
2022/05/12 19:45:00;;;;;;;8.18;1.15;;;;;;;19.78;42.79;99892.59;12189693;19;20014;-82
2022/05/12 19:49:02;;;;;;;4.93;1.30;;;;;;;19.69;43.18;99902.84;12216135;19;20522;-83